x

Isle Of Shoals, Nh (iosn3) Weather Station

2:00 - Sat 25th Oct 2014 All times are EDT. -4 hours from GMT.

  • Wind
    10mph, 11mph gusts
  • Ar Temp 60°f
  • Sea Pressure 1002.2mb
  • Isle Of Shoals, Nh
  • Isle Of Shoals, Nh

More Historic Weather Station data

Upgrade to MSW Pro to gain access to the past 30 days of data for over 8000 Wavebouys and Weather Stations around the globe.

Join Pro

Comparision Forecast

View Surf forecast
   
Sáb 10/25 2:00 10 11 mph 1002.2mb 60f
1:00 9 10 mph 1002.9mb 58f
12:00 8 9 mph 1003.6mb 56f
11:00 8 10 mph 1004.6mb 55f
10:00 13 15 mph 1004.9mb 51f
9:00 14 15 mph 1005.8mb 49f
8:00 15 16 mph 1006mb 49f
7:00 16 17 mph 1005.8mb 48f
6:00 13 14 mph 1005.7mb 49f
5:00 15 16 mph 1005.6mb 49f
4:00 17 20 mph 1005.7mb 49f
3:00 16 18 mph 1005.8mb 49f
2:00 16 17 mph 1005.8mb 48f
1:00 13 15 mph 1005.7mb 48f
12:00 14 15 mph 1005.8mb 49f
Sex 10/24 11:00 14 15 mph 1005.9mb 49f
10:00 17 18 mph 1005.6mb 49f
9:00 17 18 mph 1005.5mb 50f
8:00 16 17 mph 1005.3mb 50f
7:00 21 23 mph 1004.9mb 50f
6:00 16 20 mph 1004.7mb 50f
5:00 18 20 mph 1004mb 50f
4:00 9 10 mph 1004mb 52f
3:00 13 14 mph 1004mb 52f
2:00 15 17 mph 1004mb 51f
1:00 16 18 mph 1004.4mb 50f
12:00 18 20 mph 1004.7mb 50f
11:00 17 20 mph 1005mb 49f
10:00 21 24 mph 1005mb 49f
9:00 20 22 mph 1004.8mb 48f
8:00 17 21 mph 1004.5mb 48f
7:00 24 28 mph 1003.7mb 49f
6:00 24 25 mph 1003.7mb 49f
5:00 24 28 mph 1003.4mb 49f
4:00 25 29 mph 1003.2mb 49f
3:00 31 36 mph 1002.8mb 49f
2:00 30 31 mph 1003.3mb 49f
1:00 31 34 mph 1003.7mb 50f
12:00 32 37 mph 1003.6mb 50f
Qui 10/23 11:00 36 39 mph 1003.6mb 51f
10:00 36 41 mph 1003.7mb 51f
9:00 36 43 mph 1003.9mb 52f
8:00 36 40 mph 1004mb 51f
7:00 38 43 mph 1003.4mb 52f
6:00 40 46 mph 1003.2mb 52f
5:00 40 44 mph 1003mb 52f
4:00 39 44 mph 1002.7mb 53f
3:00 41 45 mph 1002.7mb 52f
2:00 41 49 mph 1002.7mb 52f
1:00 49 54 mph 1002.2mb 51f
12:00 47 52 mph 1002.7mb 52f
11:00 44 47 mph 1003.1mb 52f
10:00 47 55 mph 1002.7mb 51f
9:00 53 60 mph 1002mb 51f
8:00 48 54 mph 1003.4mb 49f
7:00 49 54 mph 1002.8mb 50f
6:00 49 55 mph 1004.1mb 50f
5:00 49 55 mph 1005.1mb 50f
4:00 52 56 mph 1005.4mb 50f
3:00 51 60 mph 1005.8mb 50f
2:00 44 51 mph 1007.7mb 49f
1:00 51 61 mph 1007.4mb 50f
12:00 52 59 mph 1008.8mb 50f
Qua 10/22 11:00 49 60 mph 1010mb 49f
10:00 52 62 mph 1010.3mb 51f
9:00 41 49 mph 1011.6mb 51f
8:00 44 57 mph 1011.6mb 50f
7:00 46 56 mph 1011.5mb 51f
6:00 48 56 mph 1012mb 51f
5:00 44 49 mph 1012.6mb 49f
4:00 47 52 mph 1012.8mb 49f
3:00 48 55 mph 1013mb 50f
2:00 38 45 mph 1014.3mb 50f
1:00 43 46 mph 1014.2mb 50f
12:00 37 39 mph 1015.3mb 49f
11:00 36 40 mph 1016.2mb 50f
10:00 37 43 mph 1016.5mb 49f
9:00 34 37 mph 1016.9mb 50f
8:00 38 43 mph 1015.6mb 52f
7:00 41 46 mph 1014.9mb 53f
6:00 38 40 mph 1014.7mb 55f
5:00 37 41 mph 1014.2mb 55f
4:00 32 36 mph 1014mb 55f
3:00 25 28 mph 1014.6mb 52f
2:00 26 30 mph 1014.9mb 50f
1:00 24 26 mph 1015.2mb 50f
12:00 25 29 mph 1015.3mb 51f
Ter 10/21 11:00 25 28 mph 1015.3mb 51f
10:00 23 26 mph 1014.8mb 52f
9:00 20 21 mph 1014.3mb 53f
8:00 16 18 mph 1013.9mb 54f